Time;durP1;ratioP1;P1;durP2;ratioP2;P2;SDS_P1;SDS_P2;PMS_P1;PMS_P2;Temp;Humidity;BMP_temperature;BMP_pressure;BME280_temperature;BME280_humidity;BME280_pressure;Samples;Min_cycle;Max_cycle;Signal;HPM_P1;HPM_P2
2021/09/28 00:00:24;;;;;;;1030.20;943.80;;;17.70;99.90;;;;;;4993084;28;20442;-68
2021/09/28 00:03:13;;;;;;;922.92;838.10;;;17.70;99.90;;;;;;5013518;28;20401;-67
2021/09/28 00:06:06;;;;;;;898.42;813.92;;;17.70;99.90;;;;;;4999631;28;20412;-67
2021/09/28 00:08:55;;;;;;;929.58;844.10;;;17.70;99.90;;;;;;5013625;28;20421;-68
2021/09/28 00:11:49;;;;;;;925.67;841.60;;;17.70;99.90;;;;;;5013103;28;20952;-73
2021/09/28 00:17:51;;;;;;;900.28;816.78;;;17.60;99.90;;;;;;5009551;28;20428;-67
2021/09/28 00:20:46;;;;;;;928.25;845.25;;;17.60;99.90;;;;;;5009600;28;20440;-68
2021/09/28 00:23:37;;;;;;;919.65;835.55;;;17.50;99.90;;;;;;5011244;28;20404;-68
2021/09/28 00:26:25;;;;;;;929.17;845.97;;;17.50;99.90;;;;;;5013206;28;20405;-67
2021/09/28 00:29:40;;;;;;;967.70;882.90;;;17.50;99.90;;;;;;5011323;28;20393;-68
2021/09/28 00:32:29;;;;;;;1176.90;999.90;;;17.50;99.90;;;;;;5010845;28;20432;-71
2021/09/28 00:35:18;;;;;;;1167.35;999.90;;;17.50;99.90;;;;;;5013123;28;20408;-69
2021/09/28 00:38:07;;;;;;;1236.65;999.90;;;17.50;99.90;;;;;;5006906;28;20425;-68
2021/09/28 00:40:58;;;;;;;1138.60;999.90;;;17.40;99.90;;;;;;5013106;28;20402;-68
2021/09/28 00:43:50;;;;;;;1159.13;999.90;;;17.40;99.90;;;;;;5008741;28;20502;-68
2021/09/28 00:46:40;;;;;;;917.03;833.53;;;17.40;99.90;;;;;;4995797;28;20438;-68
2021/09/28 00:49:29;;;;;;;1155.63;999.90;;;17.40;99.90;;;;;;5011995;28;20401;-68
2021/09/28 00:52:21;;;;;;;1202.05;999.90;;;17.40;99.90;;;;;;5012088;28;20503;-67
2021/09/28 00:55:10;;;;;;;1155.80;999.90;;;17.30;99.90;;;;;;5009262;28;20420;-68
2021/09/28 00:58:02;;;;;;;1157.18;999.90;;;17.30;99.90;;;;;;5011541;28;20419;-68
2021/09/28 01:00:51;;;;;;;1149.45;999.90;;;17.30;99.90;;;;;;5002850;28;20413;-68
2021/09/28 01:03:43;;;;;;;1161.50;999.90;;;17.30;99.90;;;;;;5009144;28;20726;-68
2021/09/28 01:06:31;;;;;;;1158.78;999.90;;;17.20;99.90;;;;;;5011014;28;20423;-68
2021/09/28 01:09:21;;;;;;;1164.45;999.90;;;17.20;99.90;;;;;;5011210;28;20405;-68
2021/09/28 01:12:11;;;;;;;1148.50;999.90;;;17.20;99.90;;;;;;5011223;28;20432;-68
2021/09/28 01:15:02;;;;;;;1200.68;999.90;;;17.20;99.90;;;;;;5009644;28;20446;-68
2021/09/28 01:17:51;;;;;;;1141.22;999.90;;;17.10;99.90;;;;;;5011838;28;20428;-67
2021/09/28 01:20:45;;;;;;;1148.60;999.90;;;17.10;99.90;;;;;;5011951;28;20722;-68
2021/09/28 01:23:34;;;;;;;1125.93;999.90;;;17.10;99.90;;;;;;5011233;28;20412;-68
2021/09/28 01:26:24;;;;;;;1147.97;999.90;;;17.10;99.90;;;;;;5015349;28;20393;-68
2021/09/28 01:29:13;;;;;;;1153.60;999.90;;;17.00;99.90;;;;;;5015110;28;20408;-68
2021/09/28 01:32:02;;;;;;;1138.35;999.90;;;17.00;99.90;;;;;;5007390;28;20892;-68
2021/09/28 01:34:51;;;;;;;1131.18;999.90;;;17.00;99.90;;;;;;5012958;28;20407;-69
2021/09/28 01:37:42;;;;;;;1131.45;999.90;;;17.00;99.90;;;;;;5015834;28;20495;-69
2021/09/28 01:40:31;;;;;;;1118.85;999.90;;;17.00;99.90;;;;;;5013882;28;20412;-72
2021/09/28 01:43:21;;;;;;;1133.30;999.90;;;17.00;99.90;;;;;;5016315;28;20423;-69
2021/09/28 01:46:10;;;;;;;1127.80;999.90;;;17.00;99.90;;;;;;5008881;28;20420;-69
2021/09/28 01:49:24;;;;;;;1129.75;999.90;;;17.10;99.90;;;;;;5016157;28;20444;-68
2021/09/28 01:52:13;;;;;;;1137.47;999.90;;;17.10;99.90;;;;;;5015037;28;20424;-69
2021/09/28 01:55:04;;;;;;;1127.77;999.90;;;17.20;99.90;;;;;;5016282;28;20417;-68
2021/09/28 01:57:56;;;;;;;1120.75;999.90;;;17.20;99.90;;;;;;5013555;28;20401;-68
2021/09/28 02:00:45;;;;;;;1151.40;999.90;;;17.20;99.90;;;;;;5007098;28;20512;-69
2021/09/28 02:03:34;;;;;;;1128.53;999.90;;;17.20;99.90;;;;;;5016068;28;20493;-68
2021/09/28 02:06:24;;;;;;;1124.25;999.90;;;17.20;99.90;;;;;;5011691;28;20401;-68
2021/09/28 02:09:14;;;;;;;1115.22;999.90;;;17.20;99.90;;;;;;5014714;28;20416;-68
2021/09/28 02:12:06;;;;;;;1119.15;999.90;;;17.30;99.90;;;;;;5013009;28;20447;-69
2021/09/28 02:14:56;;;;;;;1127.13;999.90;;;17.30;99.90;;;;;;5015117;28;20416;-68
2021/09/28 02:17:45;;;;;;;1124.38;999.90;;;17.30;99.90;;;;;;5015509;28;20730;-68
2021/09/28 02:20:34;;;;;;;1118.70;999.90;;;17.30;99.90;;;;;;5011005;28;20406;-68
2021/09/28 02:23:22;;;;;;;1132.38;999.90;;;17.40;99.90;;;;;;5015010;28;20412;-68
2021/09/28 02:26:17;;;;;;;1127.97;999.90;;;17.40;99.90;;;;;;5011764;28;20412;-68
2021/09/28 02:29:09;;;;;;;1115.90;999.90;;;17.40;99.90;;;;;;5015301;28;20416;-68
2021/09/28 02:31:57;;;;;;;1120.70;999.90;;;17.40;99.90;;;;;;5009116;28;20424;-68
2021/09/28 02:34:46;;;;;;;1118.10;999.90;;;17.40;99.90;;;;;;5009783;28;20419;-69
2021/09/28 02:37:35;;;;;;;1118.33;999.90;;;17.40;99.90;;;;;;5007409;28;20409;-68
2021/09/28 02:40:25;;;;;;;1116.70;999.90;;;17.30;99.90;;;;;;5013067;28;20450;-68
2021/09/28 02:43:18;;;;;;;1129.35;999.90;;;17.30;99.90;;;;;;5014470;28;20412;-68
2021/09/28 02:46:09;;;;;;;1144.38;999.90;;;17.30;99.90;;;;;;5008408;28;20440;-68
2021/09/28 02:52:12;;;;;;;1121.88;999.90;;;17.30;99.90;;;;;;5014862;28;20405;-67
2021/09/28 02:55:01;;;;;;;1130.95;999.90;;;17.20;99.90;;;;;;5012820;28;20496;-68
2021/09/28 02:57:50;;;;;;;1124.45;999.90;;;17.10;99.90;;;;;;5014322;28;20507;-68
2021/09/28 03:00:39;;;;;;;1123.05;999.90;;;17.10;99.90;;;;;;5003390;28;20870;-69
2021/09/28 03:03:29;;;;;;;1114.63;999.90;;;17.00;99.90;;;;;;5013754;28;20413;-69
2021/09/28 03:06:18;;;;;;;1119.57;999.90;;;16.90;99.90;;;;;;5011947;28;20420;-68
2021/09/28 03:09:07;;;;;;;1111.75;999.90;;;16.80;99.90;;;;;;5011322;28;20424;-69
2021/09/28 03:11:56;;;;;;;1108.25;999.90;;;16.80;99.90;;;;;;5011455;28;20409;-69
2021/09/28 03:14:45;;;;;;;1122.13;999.90;;;16.70;99.90;;;;;;5015309;28;20401;-69
2021/09/28 03:17:34;;;;;;;1122.75;999.90;;;16.60;99.90;;;;;;5015203;28;20939;-69
2021/09/28 03:20:25;;;;;;;1141.07;999.90;;;16.50;99.90;;;;;;5010366;28;20408;-70
2021/09/28 03:23:13;;;;;;;1118.88;999.90;;;16.40;99.90;;;;;;5013680;28;20420;-69
2021/09/28 03:26:02;;;;;;;1114.28;999.90;;;16.40;99.90;;;;;;5012185;28;20516;-69
2021/09/28 03:28:54;;;;;;;1120.38;999.90;;;16.40;99.90;;;;;;5011507;28;20409;-69
2021/09/28 03:31:42;;;;;;;1111.15;999.90;;;16.30;99.90;;;;;;5010664;28;20425;-69
2021/09/28 03:34:34;;;;;;;1128.30;999.90;;;16.30;99.90;;;;;;5011340;28;20440;-69
2021/09/28 03:37:24;;;;;;;1116.55;999.90;;;16.30;99.90;;;;;;5013391;28;20409;-69
2021/09/28 03:40:14;;;;;;;1121.20;999.90;;;16.30;99.90;;;;;;5012719;28;20428;-73
2021/09/28 03:43:06;;;;;;;1106.90;999.90;;;16.30;99.90;;;;;;5013847;28;20413;-69
2021/09/28 03:45:55;;;;;;;1117.55;999.90;;;16.30;99.90;;;;;;5002386;28;21056;-66
2021/09/28 03:48:45;;;;;;;1118.22;999.90;;;16.30;99.90;;;;;;5009624;28;20853;-67
2021/09/28 03:51:35;;;;;;;1120.13;999.90;;;16.20;99.90;;;;;;5009801;28;20411;-68
2021/09/28 03:54:25;;;;;;;1106.28;999.90;;;16.20;99.90;;;;;;5010775;28;20432;-68
2021/09/28 03:57:18;;;;;;;1110.57;999.90;;;16.30;99.90;;;;;;5012504;28;20746;-67
2021/09/28 04:00:09;;;;;;;1122.10;999.90;;;16.30;99.90;;;;;;5003273;28;20405;-68
2021/09/28 04:02:58;;;;;;;1111.75;999.90;;;16.20;99.90;;;;;;5012172;28;20761;-67
2021/09/28 04:05:47;;;;;;;1125.50;999.90;;;16.20;99.90;;;;;;5010414;28;20405;-68
2021/09/28 04:08:39;;;;;;;1129.35;999.90;;;16.10;99.90;;;;;;5012500;28;20808;-67
2021/09/28 04:11:29;;;;;;;1120.53;999.90;;;16.00;99.90;;;;;;5009341;28;20471;-68
2021/09/28 04:14:18;;;;;;;1122.50;999.90;;;16.00;99.90;;;;;;5011335;28;20435;-69
2021/09/28 04:17:07;;;;;;;1123.72;999.90;;;15.90;99.90;;;;;;5005188;28;20419;-69
2021/09/28 04:19:57;;;;;;;1127.85;999.90;;;16.00;99.90;;;;;;5012878;28;20499;-69
2021/09/28 04:22:46;;;;;;;1131.47;999.90;;;16.00;99.90;;;;;;5013220;28;20423;-69
2021/09/28 04:25:35;;;;;;;1123.05;999.90;;;15.90;99.90;;;;;;5013273;28;20412;-68
2021/09/28 04:28:26;;;;;;;1134.13;999.90;;;15.90;99.90;;;;;;5010960;28;20808;-69
2021/09/28 04:31:16;;;;;;;1128.43;999.90;;;15.80;99.90;;;;;;5003942;28;20420;-68
2021/09/28 04:34:05;;;;;;;1121.13;999.90;;;15.80;99.90;;;;;;5013200;28;20853;-68
2021/09/28 04:36:54;;;;;;;1121.57;999.90;;;15.90;99.90;;;;;;5007229;28;20413;-69
2021/09/28 04:39:43;;;;;;;1120.43;999.90;;;15.90;99.90;;;;;;5011234;28;20413;-68
2021/09/28 04:42:32;;;;;;;1136.47;999.90;;;15.80;99.90;;;;;;5009934;28;20419;-66
2021/09/28 04:45:24;;;;;;;1145.72;999.90;;;15.70;99.90;;;;;;5006723;28;20458;-67
2021/09/28 04:48:13;;;;;;;1131.22;999.90;;;15.70;99.90;;;;;;5000375;28;20421;-67
2021/09/28 04:51:02;;;;;;;1148.00;999.90;;;15.70;99.90;;;;;;5013243;28;20405;-68
2021/09/28 04:53:55;;;;;;;1148.60;999.90;;;15.70;99.90;;;;;;5011922;28;20416;-69
2021/09/28 04:56:44;;;;;;;1136.32;999.90;;;15.60;99.90;;;;;;5012831;28;20474;-68
2021/09/28 04:59:33;;;;;;;1143.30;999.90;;;15.60;99.90;;;;;;5010347;28;20409;-69
2021/09/28 05:02:23;;;;;;;1123.68;999.90;;;15.60;99.90;;;;;;5005350;28;20428;-69
2021/09/28 05:05:13;;;;;;;1119.20;999.90;;;15.60;99.90;;;;;;5009793;28;20416;-68
2021/09/28 05:08:02;;;;;;;1138.82;999.90;;;15.60;99.90;;;;;;5009695;28;20500;-69
2021/09/28 05:10:51;;;;;;;1136.93;999.90;;;15.60;99.90;;;;;;5010701;28;20495;-68
2021/09/28 05:13:40;;;;;;;1147.25;999.90;;;15.50;99.90;;;;;;5011101;28;20420;-69
2021/09/28 05:16:29;;;;;;;1153.55;999.90;;;15.50;99.90;;;;;;5003896;28;20453;-70
2021/09/28 05:19:20;;;;;;;1125.85;999.90;;;15.50;99.90;;;;;;5010785;28;20405;-70
2021/09/28 05:22:09;;;;;;;1151.95;999.90;;;15.50;99.90;;;;;;5010388;28;20415;-70
2021/09/28 05:24:58;;;;;;;1142.05;999.90;;;15.40;99.90;;;;;;5002634;28;20405;-69
2021/09/28 05:27:47;;;;;;;1138.07;999.90;;;15.40;99.90;;;;;;5012493;28;20408;-69
2021/09/28 05:30:36;;;;;;;1150.20;999.90;;;15.40;99.90;;;;;;5002311;28;20440;-69
2021/09/28 05:33:25;;;;;;;1134.97;999.90;;;15.40;99.90;;;;;;5010749;28;20500;-68
2021/09/28 05:36:16;;;;;;;1137.10;999.90;;;15.40;99.90;;;;;;5010828;28;20497;-68
2021/09/28 05:39:06;;;;;;;1148.75;999.90;;;15.40;99.90;;;;;;5008930;28;20509;-69
2021/09/28 05:41:55;;;;;;;1141.00;999.90;;;15.50;99.90;;;;;;5012398;28;20401;-68
2021/09/28 05:44:44;;;;;;;1131.57;999.90;;;15.50;99.90;;;;;;5012010;28;20389;-69
2021/09/28 05:47:33;;;;;;;1136.63;999.90;;;15.50;99.90;;;;;;5011549;28;20425;-69
2021/09/28 05:50:23;;;;;;;1135.57;999.90;;;15.50;99.90;;;;;;5012910;28;20461;-69
2021/09/28 05:53:13;;;;;;;1136.03;999.90;;;15.40;99.90;;;;;;5013196;28;20401;-69
2021/09/28 05:56:02;;;;;;;1137.93;999.90;;;15.40;99.90;;;;;;5010928;28;20766;-69
2021/09/28 05:58:53;;;;;;;1147.85;999.90;;;15.30;99.90;;;;;;5014014;28;20393;-69
2021/09/28 06:01:42;;;;;;;1124.90;999.90;;;15.30;99.90;;;;;;5002900;28;20424;-68
2021/09/28 06:04:32;;;;;;;1141.10;999.90;;;15.30;99.90;;;;;;5009096;28;20405;-68
2021/09/28 06:07:22;;;;;;;1129.75;999.90;;;15.40;99.90;;;;;;5012250;28;20405;-69
2021/09/28 06:10:13;;;;;;;1137.05;999.90;;;15.40;99.90;;;;;;5013182;28;20393;-69
2021/09/28 06:13:02;;;;;;;1143.47;999.90;;;15.30;99.90;;;;;;5012768;28;20401;-68
2021/09/28 06:15:51;;;;;;;1134.25;999.90;;;15.30;99.90;;;;;;5009674;28;20551;-69
2021/09/28 06:18:40;;;;;;;1149.72;999.90;;;15.30;99.90;;;;;;5014676;28;20479;-69
2021/09/28 06:21:29;;;;;;;1138.30;999.90;;;15.20;99.90;;;;;;5005320;28;20892;-69
2021/09/28 06:24:18;;;;;;;1141.32;999.90;;;15.20;99.90;;;;;;5012953;28;20408;-68
2021/09/28 06:27:09;;;;;;;1141.47;999.90;;;15.20;99.90;;;;;;5016310;28;20423;-69
2021/09/28 06:29:59;;;;;;;1142.72;999.90;;;15.20;99.90;;;;;;5011508;28;20469;-69
2021/09/28 06:32:52;;;;;;;1165.75;999.90;;;15.20;99.90;;;;;;5013559;28;20437;-70
2021/09/28 06:35:41;;;;;;;1136.25;999.90;;;15.20;99.90;;;;;;5015912;28;20429;-69
2021/09/28 06:38:30;;;;;;;1141.93;999.90;;;15.20;99.90;;;;;;5015415;28;20519;-69
2021/09/28 06:41:20;;;;;;;1137.32;999.90;;;15.20;99.90;;;;;;5015750;28;20419;-72
2021/09/28 06:44:11;;;;;;;1126.95;999.90;;;15.20;99.90;;;;;;5012775;28;20393;-68
2021/09/28 06:47:00;;;;;;;1152.05;999.90;;;15.20;99.90;;;;;;5008953;28;20421;-68
2021/09/28 06:49:49;;;;;;;1165.07;999.90;;;15.20;99.90;;;;;;5010740;28;20872;-68
2021/09/28 06:52:38;;;;;;;1159.22;999.90;;;15.20;99.90;;;;;;5015960;28;20500;-68
2021/09/28 06:55:27;;;;;;;1142.70;999.90;;;15.20;99.90;;;;;;5008642;28;20445;-68
2021/09/28 06:58:16;;;;;;;1153.93;999.90;;;15.20;99.90;;;;;;5011899;28;20878;-69
2021/09/28 07:01:09;;;;;;;1149.25;999.90;;;15.20;99.90;;;;;;5005713;28;20476;-69
2021/09/28 07:04:05;;;;;;;1133.50;999.90;;;15.20;99.90;;;;;;5012297;28;20435;-68
2021/09/28 07:06:54;;;;;;;1150.90;999.90;;;15.20;99.90;;;;;;5015217;28;20798;-68
2021/09/28 07:12:57;;;;;;;1154.13;999.90;;;15.30;99.90;;;;;;5011499;28;20485;-68
2021/09/28 07:15:46;;;;;;;1146.50;999.90;;;15.30;99.90;;;;;;5006248;28;20885;-69
2021/09/28 07:18:37;;;;;;;1149.55;999.90;;;15.20;99.90;;;;;;5011948;28;20466;-69
2021/09/28 07:21:26;;;;;;;1150.78;999.90;;;15.30;99.90;;;;;;5013886;28;20411;-69
2021/09/28 07:24:17;;;;;;;1131.45;999.90;;;15.20;99.90;;;;;;5013348;28;20408;-69
2021/09/28 07:27:14;;;;;;;1150.88;999.90;;;15.30;99.90;;;;;;5012860;28;20508;-68
2021/09/28 07:30:06;;;;;;;1134.82;999.90;;;15.30;99.90;;;;;;5006248;28;20412;-69
2021/09/28 07:32:55;;;;;;;1149.80;999.90;;;15.40;99.90;;;;;;5013136;28;20482;-68
2021/09/28 07:35:47;;;;;;;1157.43;999.90;;;15.30;99.90;;;;;;5011516;28;20445;-68
2021/09/28 07:38:40;;;;;;;1150.20;999.90;;;15.30;99.90;;;;;;5014082;28;20428;-70
2021/09/28 07:41:29;;;;;;;1170.65;999.90;;;15.40;99.90;;;;;;5013407;28;20788;-68
2021/09/28 07:44:43;;;;;;;1152.72;999.90;;;15.40;99.90;;;;;;5012324;28;20405;-68
2021/09/28 07:47:34;;;;;;;1151.60;999.90;;;15.40;99.90;;;;;;5010900;28;20419;-68
2021/09/28 07:50:23;;;;;;;1160.72;999.90;;;15.50;99.90;;;;;;5009569;28;20480;-68
2021/09/28 07:53:14;;;;;;;1157.10;999.90;;;15.50;99.90;;;;;;5011276;28;20828;-67
2021/09/28 07:56:03;;;;;;;1151.72;999.90;;;15.50;99.90;;;;;;5012993;28;20420;-68
2021/09/28 07:58:56;;;;;;;1147.32;999.90;;;15.50;99.90;;;;;;5010733;28;20917;-68
2021/09/28 08:01:45;;;;;;;1157.88;999.90;;;15.50;99.90;;;;;;5007388;28;20420;-68
2021/09/28 08:04:37;;;;;;;1141.28;999.90;;;15.60;99.90;;;;;;5007055;28;20402;-68
2021/09/28 08:07:27;;;;;;;1165.00;999.90;;;15.60;99.90;;;;;;5014302;28;20417;-68
2021/09/28 08:10:18;;;;;;;1160.97;999.90;;;15.50;99.90;;;;;;5009300;28;20397;-68
2021/09/28 08:13:11;;;;;;;1167.60;999.90;;;15.50;99.90;;;;;;5010150;28;20430;-68
2021/09/28 08:16:00;;;;;;;1163.20;999.90;;;15.50;99.90;;;;;;5003447;28;20431;-68
2021/09/28 08:18:49;;;;;;;1171.65;999.90;;;15.70;99.90;;;;;;5016743;28;20431;-68
2021/09/28 08:21:38;;;;;;;1167.57;999.90;;;15.80;99.90;;;;;;5008640;28;20423;-68
2021/09/28 08:24:29;;;;;;;1175.80;999.90;;;15.70;99.90;;;;;;5011647;28;20409;-68
2021/09/28 08:30:32;;;;;;;1171.82;999.90;;;15.90;99.90;;;;;;5005617;28;20411;-68
2021/09/28 08:33:22;;;;;;;1166.22;999.90;;;15.90;99.90;;;;;;5008977;28;20959;-68
2021/09/28 08:36:12;;;;;;;1176.55;999.90;;;15.90;99.90;;;;;;5011555;28;20456;-68
2021/09/28 08:39:02;;;;;;;1172.93;999.90;;;15.90;99.90;;;;;;5013310;28;20400;-68
2021/09/28 08:41:52;;;;;;;1181.15;999.90;;;15.90;99.90;;;;;;5011790;28;20405;-67
2021/09/28 08:44:44;;;;;;;1171.65;999.90;;;16.00;99.90;;;;;;5009492;28;20401;-70
2021/09/28 08:47:38;;;;;;;1173.57;999.90;;;16.10;99.90;;;;;;5013096;28;20944;-68
2021/09/28 08:50:27;;;;;;;1177.93;999.90;;;16.10;99.90;;;;;;5013559;28;20404;-68
2021/09/28 08:53:20;;;;;;;1180.10;999.90;;;16.10;99.90;;;;;;5010224;28;20404;-67
2021/09/28 08:56:11;;;;;;;1170.22;999.90;;;16.10;99.90;;;;;;5007095;28;20417;-69
2021/09/28 08:59:02;;;;;;;1190.13;999.90;;;16.10;99.90;;;;;;5010332;28;20928;-68
2021/09/28 09:01:58;;;;;;;1178.63;999.90;;;16.30;99.90;;;;;;5006936;28;20424;-67
2021/09/28 09:05:02;;;;;;;1183.03;999.90;;;16.50;99.90;;;;;;5013977;28;20412;-70
2021/09/28 09:07:59;;;;;;;1206.35;999.90;;;16.80;99.90;;;;;;5010649;28;20404;-68
2021/09/28 09:10:48;;;;;;;1192.43;999.90;;;16.80;99.90;;;;;;5013836;28;20400;-72
2021/09/28 09:13:39;;;;;;;1193.00;999.90;;;16.70;99.90;;;;;;5012206;28;20497;-69
2021/09/28 09:16:35;;;;;;;1209.85;999.90;;;16.70;99.90;;;;;;5005955;28;20440;-69
2021/09/28 09:19:50;;;;;;;1194.25;999.90;;;16.60;99.90;;;;;;5010101;28;20408;-69
2021/09/28 09:22:39;;;;;;;1190.55;999.90;;;16.60;99.90;;;;;;5009174;28;20401;-69
2021/09/28 09:25:30;;;;;;;1212.30;999.90;;;16.50;99.90;;;;;;5012987;28;20905;-68
2021/09/28 09:28:31;;;;;;;1212.40;999.90;;;16.60;99.90;;;;;;5008317;28;20872;-67
2021/09/28 09:31:24;;;;;;;1197.88;999.90;;;16.70;99.90;;;;;;5002032;28;20406;-67
2021/09/28 09:34:22;;;;;;;1204.80;999.90;;;16.80;99.90;;;;;;5011166;28;20510;-68
2021/09/28 09:37:13;;;;;;;1209.82;999.90;;;17.00;99.90;;;;;;5013198;28;20429;-69
2021/09/28 09:40:02;;;;;;;1211.07;999.90;;;17.10;99.90;;;;;;5014532;28;20459;-66
2021/09/28 09:42:56;;;;;;;1201.40;999.90;;;17.20;99.90;;;;;;5013416;28;20496;-67
2021/09/28 09:45:49;;;;;;;1241.10;999.90;;;17.30;99.90;;;;;;5005715;28;20412;-69
2021/09/28 09:48:41;;;;;;;1207.85;999.90;;;17.20;99.90;;;;;;5011256;28;20911;-67
2021/09/28 09:51:41;;;;;;;1211.72;999.90;;;17.20;99.90;;;;;;5013896;28;20563;-68
2021/09/28 09:54:33;;;;;;;1207.85;999.90;;;17.10;99.90;;;;;;5016553;28;20416;-68
2021/09/28 09:57:22;;;;;;;1201.38;999.90;;;17.10;99.90;;;;;;5016310;28;20532;-67
2021/09/28 10:00:15;;;;;;;1211.85;999.90;;;16.90;99.90;;;;;;5011294;28;20400;-69
2021/09/28 10:03:06;;;;;;;1180.63;999.90;;;17.00;99.90;;;;;;5016642;28;20408;-69
2021/09/28 10:05:55;;;;;;;1213.43;999.90;;;17.20;99.90;;;;;;5011104;28;20492;-69
2021/09/28 10:08:45;;;;;;;1225.40;999.90;;;17.20;99.90;;;;;;5013804;28;20420;-68
2021/09/28 10:11:36;;;;;;;1224.88;999.90;;;17.40;99.90;;;;;;5016652;28;20393;-66
2021/09/28 10:14:35;;;;;;;1220.77;999.90;;;17.40;99.90;;;;;;5013541;28;20411;-67
2021/09/28 10:17:41;;;;;;;1228.93;999.90;;;17.50;99.90;;;;;;5009348;28;20416;-67
2021/09/28 10:20:33;;;;;;;1225.70;999.90;;;17.70;99.90;;;;;;5011677;28;20747;-67
2021/09/28 10:23:24;;;;;;;1239.13;999.90;;;17.80;99.90;;;;;;5016957;28;20484;-67
2021/09/28 10:26:16;;;;;;;1233.20;999.90;;;17.90;99.90;;;;;;5016389;28;20398;-66
2021/09/28 10:29:40;;;;;;;1224.68;999.90;;;18.00;99.90;;;;;;5016439;28;20409;-67
2021/09/28 10:32:49;;;;;;;1234.38;999.90;;;18.10;99.90;;;;;;5009049;28;20415;-67
2021/09/28 10:35:54;;;;;;;1242.75;999.90;;;18.30;99.90;;;;;;5013998;28;20405;-68
2021/09/28 10:38:53;;;;;;;1244.03;999.90;;;18.30;99.90;;;;;;5016547;28;20400;-67
2021/09/28 10:41:46;;;;;;;1249.72;999.90;;;18.20;99.90;;;;;;5013641;28;20413;-68
2021/09/28 10:44:41;;;;;;;1246.25;999.90;;;18.10;99.90;;;;;;5015392;28;20408;-67
2021/09/28 10:47:46;;;;;;;1236.75;999.90;;;18.10;99.90;;;;;;5000916;28;20767;-68
2021/09/28 10:50:37;;;;;;;1231.28;999.90;;;17.90;99.90;;;;;;5012257;28;21044;-67
2021/09/28 10:53:35;;;;;;;1225.28;999.90;;;17.70;99.90;;;;;;5013655;28;20483;-68
2021/09/28 10:56:24;;;;;;;1223.47;999.90;;;17.50;99.90;;;;;;5014050;28;20442;-68
2021/09/28 10:59:13;;;;;;;1233.40;999.90;;;17.50;99.90;;;;;;4997177;28;20873;-67
2021/09/28 11:02:10;;;;;;;1216.90;999.90;;;17.60;99.90;;;;;;5005324;28;20477;-68
2021/09/28 11:05:37;;;;;;;1213.90;999.90;;;17.60;99.90;;;;;;5008747;28;20397;-68
2021/09/28 11:08:31;;;;;;;1212.85;999.90;;;17.60;99.90;;;;;;5009791;28;20437;-71
2021/09/28 11:11:23;;;;;;;1211.18;999.90;;;17.60;99.90;;;;;;5014879;28;20405;-68
2021/09/28 11:14:12;;;;;;;1213.82;999.90;;;17.40;99.90;;;;;;5010790;28;20404;-67
2021/09/28 11:17:03;;;;;;;1221.15;999.90;;;17.30;99.90;;;;;;5012675;28;20912;-69
2021/09/28 11:19:54;;;;;;;1227.90;999.90;;;17.30;99.90;;;;;;5014218;28;20393;-68
2021/09/28 11:22:54;;;;;;;1208.18;999.90;;;17.20;99.90;;;;;;5014305;28;20405;-68
2021/09/28 11:25:50;;;;;;;1220.40;999.90;;;17.20;99.90;;;;;;5015219;28;20979;-68
2021/09/28 11:28:47;;;;;;;1203.05;999.90;;;17.30;99.90;;;;;;5015529;28;20404;-68
2021/09/28 11:31:39;;;;;;;1230.90;999.90;;;17.40;99.90;;;;;;5004441;28;20916;-68
2021/09/28 11:34:30;;;;;;;1226.10;999.90;;;17.60;99.90;;;;;;5015703;28;20488;-68
2021/09/28 11:37:41;;;;;;;1224.70;999.90;;;17.70;99.90;;;;;;5015208;28;20442;-68
2021/09/28 11:40:35;;;;;;;1234.15;999.90;;;17.90;99.90;;;;;;5009626;28;20400;-68
2021/09/28 11:43:27;;;;;;;1220.28;999.90;;;18.00;99.90;;;;;;5015086;28;20393;-68
2021/09/28 11:46:19;;;;;;;1242.63;999.90;;;18.00;99.90;;;;;;5008455;28;20516;-68
2021/09/28 11:49:44;;;;;;;1225.20;999.90;;;18.00;99.90;;;;;;5013464;28;20804;-68
2021/09/28 11:52:37;;;;;;;1248.55;999.90;;;17.90;99.90;;;;;;5014636;28;20431;-66
2021/09/28 11:55:30;;;;;;;1220.05;999.90;;;17.80;99.90;;;;;;5011221;28;20423;-66
2021/09/28 11:58:19;;;;;;;1251.77;999.90;;;17.70;99.90;;;;;;5014677;28;20421;-67
2021/09/28 12:01:09;;;;;;;1218.10;999.90;;;17.70;99.90;;;;;;4993699;28;20421;-67
2021/09/28 12:04:09;;;;;;;1215.28;999.90;;;17.80;99.90;;;;;;5013612;28;20425;-67
2021/09/28 12:07:02;;;;;;;1239.18;999.90;;;17.70;99.90;;;;;;5011341;28;20456;-66
2021/09/28 12:09:52;;;;;;;1216.65;999.90;;;17.70;99.90;;;;;;4997005;28;20404;-67
2021/09/28 12:12:44;;;;;;;1237.90;999.90;;;17.70;99.90;;;;;;4999564;28;20417;-67
2021/09/28 12:15:32;;;;;;;1238.70;999.90;;;17.80;99.90;;;;;;5007184;28;20405;-66
2021/09/28 12:18:21;;;;;;;1232.70;999.90;;;17.80;99.90;;;;;;5009109;28;20417;-70
2021/09/28 12:21:25;;;;;;;1247.43;999.90;;;18.00;99.90;;;;;;5017433;28;20425;-67
2021/09/28 12:24:19;;;;;;;1236.15;999.90;;;18.00;99.90;;;;;;5014038;28;20871;-67
2021/09/28 12:27:09;;;;;;;1244.43;999.90;;;18.10;99.90;;;;;;5011252;28;20451;-67
2021/09/28 12:30:01;;;;;;;1244.00;999.90;;;18.20;99.90;;;;;;5014645;28;20409;-67
2021/09/28 12:32:51;;;;;;;1241.85;999.90;;;18.30;99.90;;;;;;4988124;28;20431;-67
2021/09/28 12:35:41;;;;;;;1251.03;999.90;;;18.30;99.90;;;;;;4990314;28;20407;-67
2021/09/28 12:38:31;;;;;;;1240.57;999.90;;;18.20;99.90;;;;;;4993614;28;20419;-67
2021/09/28 12:41:22;;;;;;;1231.70;999.90;;;18.20;99.90;;;;;;4989293;28;20417;-67
2021/09/28 12:44:21;;;;;;;1234.32;999.90;;;18.20;99.90;;;;;;4980633;28;20485;-67
2021/09/28 12:47:37;;;;;;;1260.95;999.90;;;18.20;99.90;;;;;;5012562;28;20413;-67
2021/09/28 12:50:33;;;;;;;1241.93;999.90;;;18.10;99.90;;;;;;5008769;28;21606;-67
2021/09/28 12:53:31;;;;;;;1224.35;999.90;;;18.00;99.90;;;;;;5008161;28;20868;-67
2021/09/28 12:56:23;;;;;;;1248.88;999.90;;;17.90;99.90;;;;;;5012574;28;20409;-67
2021/09/28 12:59:12;;;;;;;1251.87;999.90;;;17.90;99.90;;;;;;5013242;28;20416;-67
2021/09/28 13:02:01;;;;;;;1257.03;999.90;;;17.80;99.90;;;;;;5004248;28;20425;-67
2021/09/28 13:04:52;;;;;;;1242.43;999.90;;;17.70;99.90;;;;;;5011217;28;20484;-67
2021/09/28 13:07:42;;;;;;;1238.57;999.90;;;17.60;99.90;;;;;;5023494;28;20962;-67
2021/09/28 13:10:31;;;;;;;1262.15;999.90;;;17.70;99.90;;;;;;5010005;28;20436;-68
2021/09/28 13:13:24;;;;;;;1247.65;999.90;;;17.70;99.90;;;;;;5011702;28;20406;-67
2021/09/28 13:16:12;;;;;;;1246.85;999.90;;;17.80;99.90;;;;;;5005545;28;20405;-67
2021/09/28 13:19:02;;;;;;;1234.78;999.90;;;17.80;99.90;;;;;;5012530;28;20409;-67
2021/09/28 13:21:52;;;;;;;1015.10;937.15;;;17.80;99.90;;;;;;5012071;28;20420;-67
2021/09/28 13:24:42;;;;;;;1131.53;999.90;;;17.80;99.90;;;;;;5008712;28;20434;-67
2021/09/28 13:27:31;;;;;;;1075.82;987.53;;;17.90;99.90;;;;;;5012694;28;20409;-69
2021/09/28 13:30:21;;;;;;;1067.22;980.42;;;17.90;99.90;;;;;;5005982;28;20412;-67
2021/09/28 13:33:14;;;;;;;1087.55;999.63;;;17.90;99.90;;;;;;5012033;28;20424;-67
2021/09/28 13:36:03;;;;;;;1118.03;999.90;;;17.90;99.90;;;;;;5012493;28;20869;-67
2021/09/28 13:38:57;;;;;;;1144.57;999.90;;;17.90;99.90;;;;;;5008967;28;20439;-70
2021/09/28 13:41:46;;;;;;;1129.03;999.90;;;18.00;99.90;;;;;;5012519;28;20424;-68
2021/09/28 13:44:35;;;;;;;1127.23;999.90;;;18.10;99.90;;;;;;5012753;28;20805;-67
2021/09/28 13:47:25;;;;;;;1116.30;999.90;;;18.10;99.90;;;;;;5005974;28;20431;-67
2021/09/28 13:50:14;;;;;;;1118.20;999.90;;;18.10;99.90;;;;;;5008986;28;20393;-68
2021/09/28 13:53:05;;;;;;;1052.70;977.30;;;18.20;99.90;;;;;;5011356;28;20409;-67
2021/09/28 13:55:55;;;;;;;1039.95;964.55;;;18.30;99.90;;;;;;5006771;28;20416;-67
2021/09/28 13:58:44;;;;;;;1025.00;949.80;;;18.30;99.90;;;;;;5013638;28;20429;-67
2021/09/28 14:01:33;;;;;;;973.28;899.47;;;18.30;99.90;;;;;;5005916;28;20428;-67
2021/09/28 14:04:22;;;;;;;;;;;18.20;99.90;;;;;;5011633;28;20405;-67
2021/09/28 14:07:12;;;;;;;970.60;896.90;;;18.20;99.90;;;;;;5007315;28;20374;-67
2021/09/28 14:10:05;;;;;;;970.00;896.10;;;18.20;99.90;;;;;;5012000;28;20857;-67
2021/09/28 14:12:55;;;;;;;970.25;896.88;;;18.20;99.90;;;;;;5010966;28;20418;-66